createdAt,value
2023-01-26T00:00:07.836Z,7.17
2023-01-26T00:02:36.409Z,7.33
2023-01-26T00:05:05.174Z,7.50
2023-01-26T00:07:33.627Z,6.13
2023-01-26T00:10:07.046Z,7.17
2023-01-26T00:12:35.632Z,7.97
2023-01-26T00:15:20.378Z,7.60
2023-01-26T00:17:51.771Z,6.83
2023-01-26T00:20:20.326Z,7.20
2023-01-26T00:22:51.108Z,8.20
2023-01-26T00:25:20.504Z,8.17
2023-01-26T00:27:50.537Z,7.87
2023-01-26T00:30:21.623Z,7.83
2023-01-26T00:32:49.987Z,7.20
2023-01-26T00:35:18.557Z,8.60
2023-01-26T00:37:46.946Z,8.77
2023-01-26T00:40:16.571Z,7.70
2023-01-26T00:42:44.876Z,8.10
2023-01-26T00:45:13.546Z,7.83
2023-01-26T00:47:44.796Z,7.80
2023-01-26T00:50:14.200Z,8.37
2023-01-26T00:52:42.936Z,8.00
2023-01-26T00:55:11.350Z,7.97
2023-01-26T00:57:39.799Z,8.10
2023-01-26T01:00:11.162Z,7.03
2023-01-26T01:02:39.699Z,7.87
2023-01-26T01:05:10.491Z,8.83
2023-01-26T01:07:38.999Z,7.90
2023-01-26T01:10:08.453Z,8.93
2023-01-26T01:12:36.951Z,8.83
2023-01-26T01:15:05.993Z,8.93
2023-01-26T01:17:36.409Z,9.00
2023-01-26T01:20:05.966Z,9.70
2023-01-26T01:22:36.911Z,9.10
2023-01-26T01:25:06.292Z,9.83
2023-01-26T01:27:34.649Z,8.33
2023-01-26T01:30:07.581Z,8.73
2023-01-26T01:32:36.988Z,8.60
2023-01-26T01:35:05.801Z,8.70
2023-01-26T01:37:36.823Z,8.53
2023-01-26T01:40:05.803Z,8.40
2023-01-26T01:42:34.991Z,8.70
2023-01-26T01:45:38.861Z,8.60
2023-01-26T01:48:12.610Z,8.73
2023-01-26T01:50:42.619Z,8.73
2023-01-26T01:53:19.659Z,9.60
2023-01-26T01:55:48.322Z,8.27
2023-01-26T01:58:16.732Z,9.30
2023-01-26T02:00:45.111Z,7.73
2023-01-26T02:03:14.889Z,8.80
2023-01-26T02:05:52.677Z,8.93
2023-01-26T02:08:25.286Z,8.40
2023-01-26T02:10:56.982Z,8.30
2023-01-26T02:13:26.915Z,8.13
2023-01-26T02:15:55.843Z,7.70
2023-01-26T02:18:24.227Z,7.37
2023-01-26T02:20:55.580Z,6.53
2023-01-26T02:23:37.318Z,6.50
2023-01-26T02:26:13.882Z,7.37
2023-01-26T02:28:43.936Z,6.17
2023-01-26T02:31:13.632Z,6.43
2023-01-26T02:33:42.891Z,7.77
2023-01-26T02:36:19.389Z,8.27
2023-01-26T02:38:54.388Z,6.87
2023-01-26T02:41:41.573Z,6.33
2023-01-26T02:44:12.730Z,6.50
2023-01-26T02:46:41.276Z,6.43
2023-01-26T02:49:41.672Z,6.07
2023-01-26T02:52:10.078Z,5.70
2023-01-26T02:54:55.936Z,6.43
2023-01-26T02:57:26.007Z,6.03
2023-01-26T02:59:54.888Z,6.90
2023-01-26T03:02:23.741Z,6.70
2023-01-26T03:04:52.143Z,6.57
2023-01-26T03:07:20.667Z,6.43
2023-01-26T03:09:48.945Z,5.97
2023-01-26T03:12:17.283Z,5.80
2023-01-26T03:15:07.911Z,5.80
2023-01-26T03:17:36.239Z,5.40
2023-01-26T03:20:22.612Z,5.77
2023-01-26T03:23:08.499Z,5.80
2023-01-26T03:25:55.321Z,5.53
2023-01-26T03:28:23.819Z,5.33
2023-01-26T03:30:56.807Z,6.17
2023-01-26T03:33:25.215Z,5.97
2023-01-26T03:35:55.020Z,5.47
2023-01-26T03:38:23.392Z,6.20
2023-01-26T03:41:09.341Z,6.07
2023-01-26T03:43:55.249Z,5.33
2023-01-26T03:46:42.607Z,6.73
2023-01-26T03:49:28.591Z,6.67
2023-01-26T03:52:14.508Z,6.20
2023-01-26T03:55:00.441Z,5.57
2023-01-26T03:57:30.325Z,5.83
2023-01-26T03:59:58.678Z,6.03
2023-01-26T04:02:45.968Z,5.83
2023-01-26T04:05:31.766Z,6.30
2023-01-26T04:08:21.792Z,5.20
2023-01-26T04:11:00.122Z,6.27
2023-01-26T04:13:46.095Z,5.97
2023-01-26T04:16:32.168Z,5.60
2023-01-26T04:19:19.253Z,6.03
2023-01-26T04:21:47.584Z,6.13
2023-01-26T04:24:17.307Z,6.53
2023-01-26T04:26:45.904Z,6.20
2023-01-26T04:29:15.725Z,5.90
2023-01-26T04:31:44.495Z,6.43
2023-01-26T04:34:16.558Z,5.47
2023-01-26T04:36:45.259Z,6.37
2023-01-26T04:39:13.603Z,5.53
2023-01-26T04:41:42.572Z,6.20
2023-01-26T04:44:11.032Z,6.13
2023-01-26T04:46:39.811Z,6.57
2023-01-26T04:49:08.192Z,6.57
2023-01-26T04:51:38.034Z,6.33
2023-01-26T04:54:06.493Z,5.87
2023-01-26T04:56:37.163Z,6.20
2023-01-26T04:59:07.444Z,5.90
2023-01-26T05:01:35.975Z,5.53
2023-01-26T05:04:06.516Z,5.97
2023-01-26T05:06:35.195Z,5.87
2023-01-26T05:09:05.552Z,5.70
2023-01-26T05:11:33.898Z,5.83
2023-01-26T05:14:02.239Z,8.27
2023-01-26T05:16:30.598Z,7.53
2023-01-26T05:18:59.171Z,6.10
2023-01-26T05:21:28.241Z,6.00
2023-01-26T05:23:56.767Z,6.70
2023-01-26T05:26:26.535Z,7.43
2023-01-26T05:28:54.995Z,7.10
2023-01-26T05:31:23.314Z,6.80
2023-01-26T05:33:51.715Z,6.47
2023-01-26T05:36:20.110Z,6.60
2023-01-26T05:38:48.475Z,7.47
2023-01-26T05:41:16.868Z,6.80
2023-01-26T05:43:46.595Z,8.70
2023-01-26T05:46:14.994Z,6.83
2023-01-26T05:48:43.536Z,7.13
2023-01-26T05:51:12.027Z,7.20
2023-01-26T05:53:40.383Z,7.93
2023-01-26T05:56:08.959Z,6.93
2023-01-26T05:58:37.371Z,7.57
2023-01-26T06:01:07.219Z,7.47
2023-01-26T06:03:35.571Z,7.60
2023-01-26T06:06:04.011Z,7.50
2023-01-26T06:08:32.313Z,7.60
2023-01-26T06:11:01.393Z,6.87
2023-01-26T06:13:30.458Z,7.03
2023-01-26T06:16:02.046Z,7.07
2023-01-26T06:18:31.699Z,7.57
2023-01-26T06:21:00.304Z,6.40
2023-01-26T06:23:28.805Z,6.90
2023-01-26T06:26:00.348Z,7.27
2023-01-26T06:28:28.984Z,7.60
2023-01-26T06:31:01.040Z,7.67
2023-01-26T06:33:30.909Z,8.20
2023-01-26T06:36:02.843Z,7.57
2023-01-26T06:38:31.269Z,7.20
2023-01-26T06:41:03.055Z,6.87
2023-01-26T06:43:31.804Z,5.97
2023-01-26T06:46:00.463Z,7.33
2023-01-26T06:48:31.794Z,6.57
2023-01-26T06:51:06.576Z,7.70
2023-01-26T06:53:38.032Z,7.03
2023-01-26T06:56:06.854Z,6.87
2023-01-26T06:58:35.227Z,7.37
2023-01-26T07:01:03.693Z,7.07
2023-01-26T07:03:33.535Z,6.63
2023-01-26T07:06:01.874Z,7.03
2023-01-26T07:08:30.378Z,6.43
2023-01-26T07:10:58.729Z,7.60
2023-01-26T07:13:27.079Z,7.67
2023-01-26T07:16:01.706Z,7.70
2023-01-26T07:18:30.225Z,7.00
2023-01-26T07:21:02.806Z,6.63
2023-01-26T07:23:32.588Z,7.07
2023-01-26T07:26:02.299Z,6.90
2023-01-26T07:28:30.751Z,6.30
2023-01-26T07:30:59.172Z,6.80
2023-01-26T07:33:27.637Z,5.73
2023-01-26T07:35:57.591Z,5.67
2023-01-26T07:38:28.306Z,5.70
2023-01-26T07:40:57.644Z,5.93
2023-01-26T07:43:26.004Z,6.47
2023-01-26T07:45:55.673Z,5.90
2023-01-26T07:48:25.479Z,6.03
2023-01-26T07:50:53.821Z,5.00
2023-01-26T07:53:22.972Z,4.80
2023-01-26T07:55:52.866Z,5.80
2023-01-26T07:58:21.382Z,4.90
2023-01-26T08:00:49.787Z,5.67
2023-01-26T08:03:18.236Z,5.17
2023-01-26T08:05:47.216Z,5.37
2023-01-26T08:08:15.863Z,5.70
2023-01-26T08:10:44.193Z,5.17
2023-01-26T08:13:15.641Z,5.50
2023-01-26T08:15:45.527Z,5.37
2023-01-26T08:18:13.871Z,5.20
2023-01-26T08:20:42.653Z,5.50
2023-01-26T08:23:11.047Z,5.87
2023-01-26T08:25:39.495Z,5.37
2023-01-26T08:28:07.917Z,5.87
2023-01-26T08:30:37.785Z,5.93
2023-01-26T08:33:06.825Z,5.23
2023-01-26T08:35:35.876Z,5.57
2023-01-26T08:38:04.357Z,5.43
2023-01-26T08:40:32.965Z,6.00
2023-01-26T08:43:02.962Z,5.83
2023-01-26T08:45:34.557Z,5.80
2023-01-26T08:48:04.944Z,6.07
2023-01-26T08:50:33.244Z,6.63
2023-01-26T08:53:01.611Z,5.17
2023-01-26T08:55:29.902Z,5.20
2023-01-26T08:57:58.255Z,5.40
2023-01-26T09:00:26.781Z,4.80
2023-01-26T09:03:00.136Z,4.70
2023-01-26T09:05:34.043Z,4.50
2023-01-26T09:08:02.477Z,5.23
2023-01-26T09:10:30.961Z,4.33
2023-01-26T09:13:00.033Z,5.23
2023-01-26T09:15:29.326Z,5.50
2023-01-26T09:18:00.680Z,4.80
2023-01-26T09:20:30.736Z,5.03
2023-01-26T09:22:59.281Z,4.70
2023-01-26T09:25:27.715Z,4.87
2023-01-26T09:27:56.222Z,5.40
2023-01-26T09:30:25.817Z,4.67
2023-01-26T09:32:54.546Z,5.00
2023-01-26T09:35:23.016Z,4.83
2023-01-26T09:37:52.764Z,5.20
2023-01-26T09:40:28.129Z,4.40
2023-01-26T09:43:09.215Z,4.50
2023-01-26T09:45:46.997Z,4.70
2023-01-26T09:48:30.413Z,4.83
2023-01-26T09:51:04.324Z,6.37
2023-01-26T09:53:46.741Z,8.07
2023-01-26T09:56:28.189Z,7.23
2023-01-26T09:59:14.203Z,8.30
2023-01-26T10:01:46.381Z,7.20
2023-01-26T10:04:29.745Z,6.50
2023-01-26T10:07:00.120Z,5.83
2023-01-26T10:09:35.659Z,7.30
2023-01-26T10:12:07.855Z,6.20
2023-01-26T10:14:40.931Z,6.00
2023-01-26T10:17:18.637Z,7.00
2023-01-26T10:19:52.036Z,7.07
2023-01-26T10:22:29.473Z,6.47
2023-01-26T10:25:01.348Z,6.60
2023-01-26T10:27:30.133Z,5.97
2023-01-26T10:29:58.601Z,8.90
2023-01-26T10:32:27.636Z,9.07
2023-01-26T10:34:56.268Z,6.50
2023-01-26T10:37:29.744Z,5.97
2023-01-26T10:40:01.798Z,6.17
2023-01-26T10:42:32.153Z,6.03
2023-01-26T10:45:02.730Z,5.90
2023-01-26T10:47:31.768Z,6.30
2023-01-26T10:50:22.442Z,7.23
2023-01-26T10:53:02.276Z,7.20
2023-01-26T10:55:33.484Z,6.90
2023-01-26T10:58:02.271Z,6.20
2023-01-26T11:00:33.304Z,6.53
2023-01-26T11:03:19.501Z,6.90
2023-01-26T11:06:07.249Z,6.27
2023-01-26T11:08:37.791Z,5.67
2023-01-26T11:11:22.368Z,6.23
2023-01-26T11:14:11.721Z,6.13
2023-01-26T11:16:40.280Z,6.07
2023-01-26T11:19:14.393Z,5.67
2023-01-26T11:21:48.350Z,6.00
2023-01-26T11:24:26.081Z,5.27
2023-01-26T11:27:22.758Z,5.23
2023-01-26T11:30:17.097Z,6.20
2023-01-26T11:32:56.212Z,5.90
2023-01-26T11:35:33.196Z,7.23
2023-01-26T11:38:16.988Z,8.20
2023-01-26T11:40:51.934Z,6.27
2023-01-26T11:43:37.254Z,6.50
2023-01-26T11:46:18.728Z,5.90
2023-01-26T11:48:58.758Z,8.00
2023-01-26T11:51:43.656Z,4.50
2023-01-26T11:54:29.467Z,5.17
2023-01-26T11:57:07.275Z,5.97
2023-01-26T11:59:41.992Z,4.90
2023-01-26T12:02:27.831Z,4.97
2023-01-26T12:04:58.891Z,5.10
2023-01-26T12:07:31.693Z,5.73
2023-01-26T12:10:03.643Z,4.83
2023-01-26T12:12:39.708Z,6.33
2023-01-26T12:15:14.441Z,5.53
2023-01-26T12:17:52.121Z,5.87
2023-01-26T12:20:30.544Z,5.63
2023-01-26T12:23:04.812Z,5.17
2023-01-26T12:25:36.794Z,5.97
2023-01-26T12:28:18.019Z,6.13
2023-01-26T12:30:55.116Z,7.00
2023-01-26T12:33:24.177Z,4.80
2023-01-26T12:36:20.635Z,5.37
2023-01-26T12:39:13.891Z,7.50
2023-01-26T12:42:10.786Z,7.57
2023-01-26T12:44:42.130Z,5.80
2023-01-26T12:47:19.510Z,5.70
2023-01-26T12:49:56.809Z,7.73
2023-01-26T12:52:31.191Z,8.87
2023-01-26T12:55:04.526Z,10.67
2023-01-26T12:57:39.380Z,8.53
2023-01-26T13:00:18.777Z,7.27
2023-01-26T13:02:51.333Z,9.17
2023-01-26T13:05:31.985Z,12.60
2023-01-26T13:08:36.633Z,8.20
2023-01-26T13:11:07.167Z,7.57
2023-01-26T13:13:52.865Z,10.50
2023-01-26T13:16:36.422Z,10.30
2023-01-26T13:19:06.438Z,6.53
2023-01-26T13:21:52.928Z,6.00
2023-01-26T13:24:43.918Z,8.87
2023-01-26T13:27:33.070Z,7.30
2023-01-26T13:30:02.096Z,6.23
2023-01-26T13:33:05.852Z,5.67
2023-01-26T13:35:37.154Z,4.60
2023-01-26T13:38:15.515Z,5.63
2023-01-26T13:40:46.529Z,5.43
2023-01-26T13:43:27.126Z,5.43
2023-01-26T13:46:10.761Z,5.17
2023-01-26T13:48:47.877Z,5.47
2023-01-26T13:51:23.427Z,4.70
2023-01-26T13:53:59.221Z,4.70
2023-01-26T13:56:31.492Z,5.27
2023-01-26T13:59:22.923Z,4.87
2023-01-26T14:01:53.433Z,5.60
2023-01-26T14:04:51.876Z,6.30
2023-01-26T14:07:23.560Z,6.17
2023-01-26T14:09:53.553Z,8.37
2023-01-26T14:12:25.227Z,5.77
2023-01-26T14:14:56.624Z,5.40
2023-01-26T14:17:27.938Z,5.53
2023-01-26T14:19:57.117Z,5.57
2023-01-26T14:22:27.197Z,4.60
2023-01-26T14:24:55.863Z,4.80
2023-01-26T14:27:38.102Z,3.53
2023-01-26T14:30:26.685Z,3.80
2023-01-26T14:33:05.491Z,4.40
2023-01-26T14:35:34.658Z,4.00
2023-01-26T14:38:15.947Z,4.07
2023-01-26T14:40:51.306Z,3.83
2023-01-26T14:43:20.338Z,3.80
2023-01-26T14:45:52.183Z,4.10
2023-01-26T14:48:24.495Z,4.30
2023-01-26T14:50:53.475Z,3.93
2023-01-26T14:53:25.681Z,4.07
2023-01-26T14:55:54.913Z,4.03
2023-01-26T14:58:26.677Z,5.10
2023-01-26T15:00:58.263Z,6.77
2023-01-26T15:03:30.455Z,5.80
2023-01-26T15:06:08.368Z,4.83
2023-01-26T15:08:40.389Z,4.70
2023-01-26T15:11:27.421Z,4.87
2023-01-26T15:13:57.037Z,5.20
2023-01-26T15:16:27.016Z,5.17
2023-01-26T15:19:00.950Z,4.10
2023-01-26T15:21:34.764Z,4.00
2023-01-26T15:24:05.685Z,3.80
2023-01-26T15:26:36.451Z,4.50
2023-01-26T15:29:07.714Z,5.00
2023-01-26T15:31:38.736Z,4.27
2023-01-26T15:34:28.184Z,5.30
2023-01-26T15:36:58.749Z,4.13
2023-01-26T15:39:27.385Z,4.47
2023-01-26T15:42:15.795Z,7.33
2023-01-26T15:44:44.219Z,10.53
2023-01-26T15:47:13.900Z,11.37
2023-01-26T15:49:43.069Z,24.50
2023-01-26T15:52:15.340Z,7.17
2023-01-26T15:54:44.080Z,5.37
2023-01-26T15:57:13.509Z,5.03
2023-01-26T15:59:42.627Z,4.27
2023-01-26T16:02:15.105Z,4.27
2023-01-26T16:04:43.828Z,4.73
2023-01-26T16:07:15.675Z,4.93
2023-01-26T16:09:54.019Z,4.97
2023-01-26T16:12:31.833Z,4.97
2023-01-26T16:15:00.920Z,4.80
2023-01-26T16:17:29.529Z,4.43
2023-01-26T16:19:57.975Z,5.13
2023-01-26T16:22:27.844Z,5.23
2023-01-26T16:24:56.243Z,7.27
2023-01-26T16:27:24.614Z,5.83
2023-01-26T16:29:53.209Z,8.53
2023-01-26T16:32:28.766Z,5.67
2023-01-26T16:34:57.259Z,5.60
2023-01-26T16:37:27.080Z,5.03
2023-01-26T16:39:55.548Z,5.03
2023-01-26T16:42:24.244Z,5.33
2023-01-26T16:44:52.709Z,4.57
2023-01-26T16:47:21.163Z,4.90
2023-01-26T16:49:49.645Z,5.47
2023-01-26T16:52:20.531Z,5.40
2023-01-26T16:54:50.241Z,5.67
2023-01-26T16:57:18.567Z,5.30
2023-01-26T16:59:47.135Z,5.23
2023-01-26T17:02:25.577Z,4.70
2023-01-26T17:04:57.191Z,5.57
2023-01-26T17:07:25.702Z,5.50
2023-01-26T17:09:55.901Z,5.73
2023-01-26T17:12:24.353Z,4.90
2023-01-26T17:14:53.101Z,5.17
2023-01-26T17:17:21.655Z,5.70
2023-01-26T17:19:50.083Z,6.50
2023-01-26T17:22:18.649Z,6.23
2023-01-26T17:24:47.224Z,5.20
2023-01-26T17:27:17.690Z,5.83
2023-01-26T17:29:46.553Z,5.90
2023-01-26T17:32:15.916Z,6.00
2023-01-26T17:34:44.602Z,6.37
2023-01-26T17:37:13.047Z,6.60
2023-01-26T17:39:41.467Z,6.33
2023-01-26T17:42:09.967Z,14.37
2023-01-26T17:44:40.089Z,10.03
2023-01-26T17:47:09.390Z,20.87
2023-01-26T17:49:37.925Z,12.30
2023-01-26T17:52:08.236Z,8.77
2023-01-26T17:54:36.688Z,8.53
2023-01-26T17:57:05.227Z,8.07
2023-01-26T17:59:33.593Z,7.87
2023-01-26T18:02:03.470Z,7.00
2023-01-26T18:04:33.228Z,6.20
2023-01-26T18:07:02.745Z,7.37
2023-01-26T18:09:31.326Z,5.93
2023-01-26T18:11:59.760Z,6.63
2023-01-26T18:14:28.370Z,6.77
2023-01-26T18:16:56.953Z,6.40
2023-01-26T18:19:27.189Z,6.73
2023-01-26T18:21:55.645Z,6.73
2023-01-26T18:24:24.153Z,7.03
2023-01-26T18:26:52.606Z,7.27
2023-01-26T18:29:21.040Z,7.37
2023-01-26T18:31:49.696Z,7.00
2023-01-26T18:34:18.205Z,7.47
2023-01-26T18:36:48.061Z,7.37
2023-01-26T18:39:16.977Z,6.93
2023-01-26T18:41:45.430Z,6.83
2023-01-26T18:44:13.930Z,7.60
2023-01-26T18:46:42.450Z,7.43
2023-01-26T18:49:11.307Z,7.47
2023-01-26T18:51:39.873Z,7.57
2023-01-26T18:54:09.686Z,7.43
2023-01-26T18:56:38.309Z,7.13
2023-01-26T18:59:09.577Z,6.80
2023-01-26T19:01:38.638Z,7.37
2023-01-26T19:04:07.579Z,7.60
2023-01-26T19:06:36.675Z,7.10
2023-01-26T19:09:07.451Z,6.73
2023-01-26T19:11:38.828Z,6.90
2023-01-26T19:14:08.407Z,7.20
2023-01-26T19:16:37.239Z,7.50
2023-01-26T19:19:06.150Z,8.60
2023-01-26T19:21:34.703Z,7.77
2023-01-26T19:24:06.128Z,6.70
2023-01-26T19:26:35.217Z,7.10
2023-01-26T19:29:05.528Z,6.73
2023-01-26T19:31:36.043Z,7.43
2023-01-26T19:34:07.639Z,7.03
2023-01-26T19:36:37.531Z,7.30
2023-01-26T19:39:07.299Z,6.33
2023-01-26T19:41:36.241Z,7.17
2023-01-26T19:44:06.522Z,7.20
2023-01-26T19:46:35.082Z,9.13
2023-01-26T19:49:03.596Z,9.70
2023-01-26T19:51:33.049Z,9.90
2023-01-26T19:54:01.442Z,7.70
2023-01-26T19:56:31.799Z,7.90
2023-01-26T19:59:02.109Z,6.93
2023-01-26T20:01:32.741Z,6.63
2023-01-26T20:04:03.068Z,6.20
2023-01-26T20:06:33.348Z,6.87
2023-01-26T20:09:03.578Z,6.13
2023-01-26T20:11:32.109Z,5.90
2023-01-26T20:14:02.353Z,5.87
2023-01-26T20:16:34.326Z,6.73
2023-01-26T20:19:03.333Z,6.27
2023-01-26T20:21:32.407Z,5.70
2023-01-26T20:24:05.553Z,6.10
2023-01-26T20:26:36.031Z,6.83
2023-01-26T20:29:04.677Z,6.40
2023-01-26T20:31:34.826Z,6.70
2023-01-26T20:34:03.287Z,6.23
2023-01-26T20:36:34.131Z,6.83
2023-01-26T20:39:02.570Z,7.07
2023-01-26T20:41:32.845Z,6.90
2023-01-26T20:44:02.769Z,6.90
2023-01-26T20:46:34.612Z,6.83
2023-01-26T20:49:12.104Z,7.57
2023-01-26T20:51:42.681Z,6.90
2023-01-26T20:54:17.117Z,7.23
2023-01-26T20:56:46.843Z,7.20
2023-01-26T20:59:15.279Z,6.97
2023-01-26T21:01:43.943Z,6.80
2023-01-26T21:04:13.852Z,7.57
2023-01-26T21:06:42.322Z,6.70
2023-01-26T21:09:12.736Z,7.00
2023-01-26T21:11:41.620Z,7.60
2023-01-26T21:14:13.101Z,10.17
2023-01-26T21:16:41.756Z,10.53
2023-01-26T21:19:13.546Z,7.03
2023-01-26T21:21:41.929Z,7.77
2023-01-26T21:24:11.164Z,7.43
2023-01-26T21:26:39.583Z,7.40
2023-01-26T21:29:08.345Z,7.40
2023-01-26T21:31:36.833Z,7.07
2023-01-26T21:34:05.250Z,7.13
2023-01-26T21:36:39.103Z,7.07
2023-01-26T21:39:10.809Z,7.80
2023-01-26T21:41:57.580Z,8.73
2023-01-26T21:44:27.772Z,7.23
2023-01-26T21:46:59.309Z,7.90
2023-01-26T21:49:28.528Z,7.80
2023-01-26T21:52:16.764Z,7.03
2023-01-26T21:54:49.025Z,7.37
2023-01-26T21:57:34.676Z,6.80
2023-01-26T22:00:03.211Z,7.47
2023-01-26T22:02:34.756Z,7.20
2023-01-26T22:05:03.198Z,6.57
2023-01-26T22:07:34.386Z,6.93
2023-01-26T22:10:05.997Z,7.07
2023-01-26T22:12:34.452Z,7.50
2023-01-26T22:15:02.936Z,7.67
2023-01-26T22:17:31.345Z,8.63
2023-01-26T22:19:59.674Z,8.23
2023-01-26T22:22:28.120Z,7.73
2023-01-26T22:24:57.887Z,7.60
2023-01-26T22:27:26.226Z,8.63
2023-01-26T22:29:54.554Z,8.90
2023-01-26T22:32:23.162Z,9.40
2023-01-26T22:34:51.618Z,8.63
2023-01-26T22:37:20.058Z,9.10
2023-01-26T22:39:49.027Z,9.23
2023-01-26T22:42:19.965Z,8.33
2023-01-26T22:44:48.456Z,9.23
2023-01-26T22:47:16.957Z,9.60
2023-01-26T22:49:47.982Z,9.20
2023-01-26T22:52:16.456Z,9.67
2023-01-26T22:54:46.487Z,8.63
2023-01-26T22:57:14.911Z,8.60
2023-01-26T22:59:45.320Z,8.57
2023-01-26T23:02:13.914Z,8.93
2023-01-26T23:04:44.248Z,9.10
2023-01-26T23:07:15.571Z,8.00
2023-01-26T23:09:45.279Z,8.90
2023-01-26T23:12:14.664Z,8.80
2023-01-26T23:14:44.606Z,9.80
2023-01-26T23:17:13.114Z,8.57
2023-01-26T23:19:41.887Z,9.27
2023-01-26T23:22:11.876Z,9.47
2023-01-26T23:24:40.300Z,9.03
2023-01-26T23:27:09.292Z,9.50
2023-01-26T23:29:41.745Z,8.63
2023-01-26T23:32:14.307Z,9.10
2023-01-26T23:34:42.763Z,8.93
2023-01-26T23:37:11.335Z,9.03
2023-01-26T23:39:39.747Z,9.10
2023-01-26T23:42:18.369Z,8.90
2023-01-26T23:44:49.156Z,8.93
2023-01-26T23:47:19.797Z,7.67
2023-01-26T23:49:48.496Z,8.50
2023-01-26T23:52:17.964Z,8.87
2023-01-26T23:54:46.374Z,7.77
2023-01-26T23:57:14.946Z,9.57
2023-01-26T23:59:43.333Z,10.70
